Time;durP1;ratioP1;P1;durP2;ratioP2;P2;SDS_P1;SDS_P2;PMS_P1;PMS_P2;Temp;Humidity;BMP_temperature;BMP_pressure;BME280_temperature;BME280_humidity;BME280_pressure;Samples;Min_cycle;Max_cycle;Signal;HPM_P1;HPM_P2
2022/03/14 00:01:15;;;;;;;5.20;3.13;;;;;;;-141.59;100.00;61776.25;5030013;28;20268;-76
2022/03/14 00:03:45;;;;;;;4.37;3.43;;;;;;;-141.59;100.00;61776.25;5044342;28;20313;-76
2022/03/14 00:06:12;;;;;;;3.43;3.03;;;;;;;-141.59;100.00;61776.25;5041499;28;20237;-77
2022/03/14 00:08:44;;;;;;;4.80;3.67;;;;;;;-141.59;100.00;61776.25;5026210;28;20198;-76
2022/03/14 00:11:14;;;;;;;3.60;2.97;;;;;;;-141.59;100.00;61776.25;5044435;28;20320;-76
2022/03/14 00:13:46;;;;;;;3.70;2.90;;;;;;;-141.59;100.00;61776.25;5043396;28;20198;-76
2022/03/14 00:16:22;;;;;;;3.83;2.80;;;;;;;-141.59;100.00;61776.25;5039880;28;20211;-77
2022/03/14 00:18:51;;;;;;;3.93;3.10;;;;;;;-141.59;100.00;61776.25;5045914;28;20209;-76
2022/03/14 00:21:21;;;;;;;3.60;2.80;;;;;;;-141.59;100.00;61776.25;5027091;28;20210;-76
2022/03/14 00:23:50;;;;;;;3.27;2.93;;;;;;;-141.59;100.00;61776.25;5038052;28;20326;-76
2022/03/14 00:26:17;;;;;;;3.60;3.30;;;;;;;-141.59;100.00;61776.25;5041589;28;20198;-76
2022/03/14 00:28:45;;;;;;;4.00;3.30;;;;;;;-141.59;100.00;61776.25;5042953;28;20268;-76
2022/03/14 00:31:12;;;;;;;3.77;3.27;;;;;;;-141.59;100.00;61776.25;5046231;28;20214;-76
2022/03/14 00:33:39;;;;;;;3.70;3.10;;;;;;;-141.59;100.00;61776.25;5045498;28;20406;-77
2022/03/14 00:36:08;;;;;;;4.10;3.50;;;;;;;-141.59;100.00;61776.25;5018885;28;20806;-76
2022/03/14 00:38:36;;;;;;;4.87;3.93;;;;;;;-141.59;100.00;61776.25;5029112;28;20210;-76
2022/03/14 00:41:05;;;;;;;4.90;3.67;;;;;;;-141.59;100.00;61776.25;5023837;28;20230;-76
2022/03/14 00:43:32;;;;;;;4.07;3.27;;;;;;;-141.59;100.00;61776.25;5038675;28;20272;-76
2022/03/14 00:45:59;;;;;;;4.00;3.50;;;;;;;-141.59;100.00;61776.25;5037611;28;20194;-77
2022/03/14 00:48:26;;;;;;;4.73;3.43;;;;;;;-141.59;100.00;61776.25;5027377;28;20202;-76
2022/03/14 00:50:54;;;;;;;4.53;3.43;;;;;;;-141.59;100.00;61776.25;5032967;28;20210;-76
2022/03/14 00:53:21;;;;;;;4.27;3.70;;;;;;;-141.59;100.00;61776.25;5042361;28;20214;-76
2022/03/14 00:55:48;;;;;;;4.60;3.37;;;;;;;-141.59;100.00;61776.25;5027964;28;20213;-76
2022/03/14 00:58:17;;;;;;;4.30;3.47;;;;;;;-141.59;100.00;61776.25;5038623;28;20205;-77
2022/03/14 01:00:44;;;;;;;4.37;3.60;;;;;;;-141.59;100.00;61776.25;5036567;28;20206;-76
2022/03/14 01:03:11;;;;;;;5.13;3.80;;;;;;;-141.59;100.00;61776.25;5043148;28;20198;-77
2022/03/14 01:05:38;;;;;;;5.33;3.87;;;;;;;-141.59;100.00;61776.25;5026833;28;20210;-77
2022/03/14 01:08:09;;;;;;;5.53;3.60;;;;;;;-141.59;100.00;61776.25;5027804;28;20213;-76
2022/03/14 01:10:36;;;;;;;7.93;3.80;;;;;;;-141.59;100.00;61776.25;5041942;28;20293;-76
2022/03/14 01:13:04;;;;;;;4.30;3.53;;;;;;;-141.59;100.00;61776.25;5045671;28;20206;-76
2022/03/14 01:15:34;;;;;;;3.90;3.13;;;;;;;-141.59;100.00;61776.25;5023795;28;20214;-76
2022/03/14 01:18:02;;;;;;;5.33;3.43;;;;;;;-141.59;100.00;61776.25;5042833;28;20234;-76
2022/03/14 01:20:29;;;;;;;6.40;3.60;;;;;;;-141.59;100.00;61776.25;5024864;28;20289;-76
2022/03/14 01:22:56;;;;;;;5.27;3.73;;;;;;;-141.59;100.00;61776.25;5025035;28;20206;-76
2022/03/14 01:25:25;;;;;;;4.67;3.63;;;;;;;-141.59;100.00;61776.25;5041739;28;20226;-76
2022/03/14 01:27:52;;;;;;;4.73;3.40;;;;;;;-141.59;100.00;61776.25;5042370;28;20268;-77
2022/03/14 01:30:19;;;;;;;4.20;3.50;;;;;;;-141.59;100.00;61776.25;5028666;28;20316;-77
2022/03/14 01:32:48;;;;;;;4.33;3.50;;;;;;;-141.59;100.00;61776.25;5035905;28;20245;-77
2022/03/14 01:35:17;;;;;;;5.60;3.70;;;;;;;-141.59;100.00;61776.25;5041445;28;20220;-75
2022/03/14 01:37:44;;;;;;;5.23;4.23;;;;;;;-141.59;100.00;61776.25;5040855;28;20202;-77
2022/03/14 01:40:14;;;;;;;4.90;3.90;;;;;;;-141.59;100.00;61776.25;5044301;28;20317;-77
2022/03/14 01:42:41;;;;;;;5.03;3.67;;;;;;;-141.59;100.00;61776.25;5024026;28;20210;-82
2022/03/14 01:45:10;;;;;;;5.30;3.63;;;;;;;-141.59;100.00;61776.25;5038794;28;20240;-82
2022/03/14 01:47:39;;;;;;;4.30;3.90;;;;;;;-141.59;100.00;61776.25;5035723;28;20213;-83
2022/03/14 01:50:08;;;;;;;5.00;3.63;;;;;;;-141.59;100.00;61776.25;5038530;28;20233;-84
2022/03/14 01:52:36;;;;;;;4.03;3.60;;;;;;;-141.59;100.00;61776.25;5024104;28;20199;-84
2022/03/14 01:55:05;;;;;;;3.43;3.07;;;;;;;-141.59;100.00;61776.25;5045934;28;20198;-83
2022/03/14 01:57:33;;;;;;;3.80;3.23;;;;;;;-141.59;100.00;61776.25;5024922;28;20209;-84
2022/03/14 02:00:01;;;;;;;4.90;3.80;;;;;;;-141.59;100.00;61776.25;5030833;28;20198;-84
2022/03/14 02:02:28;;;;;;;4.60;3.60;;;;;;;-141.59;100.00;61776.25;5028364;28;20300;-84
2022/03/14 02:05:00;;;;;;;4.43;3.70;;;;;;;-141.59;100.00;61776.25;5025426;28;20226;-83
2022/03/14 02:07:32;;;;;;;4.83;3.40;;;;;;;-141.59;100.00;61776.25;5042800;28;20209;-82
2022/03/14 02:09:59;;;;;;;4.27;3.17;;;;;;;-141.59;100.00;61776.25;5024244;28;20198;-83
2022/03/14 02:12:26;;;;;;;4.63;3.47;;;;;;;-141.59;100.00;61776.25;5026397;28;20221;-84
2022/03/14 02:14:53;;;;;;;3.70;3.30;;;;;;;-141.59;100.00;61776.25;5029415;28;20205;-83
2022/03/14 02:17:21;;;;;;;3.23;2.93;;;;;;;-141.59;100.00;61776.25;5025426;28;20202;-84
2022/03/14 02:19:49;;;;;;;4.20;3.00;;;;;;;-141.59;100.00;61776.25;5021223;28;20229;-84
2022/03/14 02:22:19;;;;;;;3.50;3.00;;;;;;;-141.59;100.00;61776.25;5040823;28;20204;-80
2022/03/14 02:24:47;;;;;;;4.23;3.17;;;;;;;-141.59;100.00;61776.25;5027361;28;20222;-84
2022/03/14 02:27:16;;;;;;;4.43;3.30;;;;;;;-141.59;100.00;61776.25;5037511;28;20198;-82
2022/03/14 02:29:43;;;;;;;3.93;3.17;;;;;;;-141.59;100.00;61776.25;5027505;28;20202;-82
2022/03/14 02:32:12;;;;;;;3.57;2.83;;;;;;;-141.59;100.00;61776.25;5040274;28;20218;-82
2022/03/14 02:34:39;;;;;;;3.33;2.93;;;;;;;-141.59;100.00;61776.25;5044077;28;20244;-84
2022/03/14 02:37:07;;;;;;;3.53;2.90;;;;;;;-141.59;100.00;61776.25;5030264;28;20210;-83
2022/03/14 02:39:37;;;;;;;4.10;3.23;;;;;;;-141.59;100.00;61776.25;5037681;28;20260;-83
2022/03/14 02:42:07;;;;;;;3.67;3.30;;;;;;;-141.59;100.00;61776.25;5026237;28;20234;-83
2022/03/14 02:44:35;;;;;;;3.80;2.97;;;;;;;-141.59;100.00;61776.25;5046154;28;20238;-82
2022/03/14 02:47:04;;;;;;;3.87;3.30;;;;;;;-141.59;100.00;61776.25;5039810;28;20206;-82
2022/03/14 02:49:32;;;;;;;4.87;3.43;;;;;;;10.15;100.00;61776.25;5042077;28;20233;-83
2022/03/14 02:51:59;;;;;;;3.87;2.90;;;;;;;-141.59;100.00;61776.25;5027354;28;20213;-83
2022/03/14 02:54:26;;;;;;;4.00;3.20;;;;;;;-141.59;100.00;61776.25;5027992;28;20197;-83
2022/03/14 02:56:56;;;;;;;4.33;3.10;;;;;;;-141.59;100.00;61776.25;5046254;28;20225;-85
2022/03/14 02:59:24;;;;;;;4.23;3.30;;;;;;;-141.59;100.00;61776.25;5020138;28;20210;-85
2022/03/14 03:01:51;;;;;;;4.40;3.63;;;;;;;-141.59;100.00;61776.25;5027618;28;20206;-83
2022/03/14 03:04:18;;;;;;;3.87;3.03;;;;;;;-141.59;100.00;61776.25;5021898;28;20214;-85
2022/03/14 03:06:45;;;;;;;4.50;3.37;;;;;;;-141.59;100.00;61776.25;5030693;28;20202;-85
2022/03/14 03:09:13;;;;;;;4.30;3.40;;;;;;;-141.59;100.00;61776.25;5034360;28;20300;-85
2022/03/14 03:11:41;;;;;;;4.63;3.40;;;;;;;-141.59;100.00;61776.25;5024484;28;20214;-84
2022/03/14 03:14:10;;;;;;;3.70;3.20;;;;;;;-141.59;100.00;61776.25;5042696;28;20309;-84
2022/03/14 03:16:37;;;;;;;3.93;3.13;;;;;;;-141.59;100.00;61776.25;5029669;28;20217;-84
2022/03/14 03:19:06;;;;;;;5.93;3.00;;;;;;;-141.59;100.00;61776.25;5041078;28;20281;-83
2022/03/14 03:21:34;;;;;;;3.90;3.13;;;;;;;-141.59;100.00;61776.25;5024503;28;20211;-84
2022/03/14 03:24:02;;;;;;;3.50;3.00;;;;;;;-141.59;100.00;61776.25;5023866;28;20312;-84
2022/03/14 03:26:29;;;;;;;4.87;3.40;;;;;;;-141.59;100.00;61776.25;5026268;28;20202;-84
2022/03/14 03:28:57;;;;;;;4.20;2.83;;;;;;;-141.59;100.00;61776.25;5027598;28;20256;-84
2022/03/14 03:31:28;;;;;;;4.10;2.97;;;;;;;-141.59;100.00;61776.25;5029312;28;20202;-84
2022/03/14 03:33:55;;;;;;;3.00;2.40;;;;;;;-141.59;100.00;61776.25;5045898;28;20234;-83
2022/03/14 03:36:22;;;;;;;3.30;2.53;;;;;;;-141.59;100.00;61776.25;5027105;28;20202;-84
2022/03/14 03:38:49;;;;;;;3.37;1.90;;;;;;;-141.59;100.00;61776.25;5043008;28;20237;-81
2022/03/14 03:41:18;;;;;;;2.77;2.57;;;;;;;-141.59;100.00;61776.25;5020922;28;20234;-84
2022/03/14 03:43:45;;;;;;;3.27;2.50;;;;;;;-141.59;100.00;61776.25;5023122;28;20233;-84
2022/03/14 03:46:12;;;;;;;3.07;2.60;;;;;;;-141.59;100.00;61776.25;5025428;28;20227;-84
2022/03/14 03:48:40;;;;;;;3.17;2.50;;;;;;;-141.59;100.00;61776.25;5014361;28;20246;-84
2022/03/14 03:51:07;;;;;;;4.40;2.70;;;;;;;-141.59;100.00;61776.25;5037785;28;20288;-84
2022/03/14 03:53:34;;;;;;;2.80;2.50;;;;;;;-141.59;100.00;61776.25;5020637;28;20210;-84
2022/03/14 03:56:01;;;;;;;3.00;2.40;;;;;;;-141.59;100.00;61776.25;5027915;28;20223;-84
2022/03/14 03:58:30;;;;;;;3.20;2.50;;;;;;;-141.59;100.00;61776.25;5022675;28;20204;-84
2022/03/14 04:00:57;;;;;;;4.07;2.47;;;;;;;-141.59;100.00;61776.25;5041038;28;20230;-84
2022/03/14 04:03:24;;;;;;;3.30;2.40;;;;;;;-141.59;100.00;61776.25;5021942;28;20218;-83
2022/03/14 04:05:52;;;;;;;3.13;2.47;;;;;;;-141.59;100.00;61776.25;5021278;28;20356;-85
2022/03/14 04:08:21;;;;;;;2.80;2.50;;;;;;;-141.59;100.00;61776.25;5025840;28;20210;-84
2022/03/14 04:10:54;;;;;;;3.47;2.50;;;;;;;-141.59;100.00;61776.25;5025521;28;20225;-83
2022/03/14 04:13:25;;;;;;;2.40;2.07;;;;;;;-141.59;100.00;61776.25;5042579;28;20207;-84
2022/03/14 04:15:53;;;;;;;2.47;2.03;;;;;;;-141.59;100.00;61776.25;5035743;28;20214;-83
2022/03/14 04:18:24;;;;;;;3.83;2.00;;;;;;;-141.59;100.00;61776.25;5020585;28;20210;-85
2022/03/14 04:20:53;;;;;;;2.53;1.97;;;;;;;-141.59;100.00;61776.25;5026407;28;20206;-83
2022/03/14 04:23:20;;;;;;;2.77;2.20;;;;;;;-141.59;100.00;61776.25;5023013;28;20214;-83
2022/03/14 04:25:48;;;;;;;3.03;2.30;;;;;;;-141.59;100.00;61776.25;5025639;28;20223;-84
2022/03/14 04:28:16;;;;;;;2.77;2.20;;;;;;;-141.59;100.00;61776.25;5025229;28;20210;-83
2022/03/14 04:30:44;;;;;;;2.53;2.33;;;;;;;-141.59;100.00;61776.25;5040216;28;20222;-84
2022/03/14 04:33:11;;;;;;;2.17;1.97;;;;;;;-141.59;100.00;61776.25;5023029;28;20208;-84
2022/03/14 04:35:39;;;;;;;3.03;2.50;;;;;;;-141.59;100.00;61776.25;5024164;28;20207;-82
2022/03/14 04:38:08;;;;;;;4.57;3.23;;;;;;;-141.59;100.00;61776.25;5024012;28;20217;-82
2022/03/14 04:40:36;;;;;;;2.90;2.53;;;;;;;-141.59;100.00;61776.25;5016891;28;20215;-83
2022/03/14 04:43:07;;;;;;;5.70;3.07;;;;;;;-141.59;100.00;61776.25;5027649;28;20198;-85
2022/03/14 04:45:35;;;;;;;3.93;3.17;;;;;;;-141.59;100.00;61776.25;5036887;28;20234;-81
2022/03/14 04:48:02;;;;;;;3.77;2.70;;;;;;;-141.59;100.00;61776.25;5024919;28;20462;-84
2022/03/14 04:50:30;;;;;;;2.90;2.37;;;;;;;-141.59;100.00;61776.25;5030741;28;20272;-84
2022/03/14 04:52:58;;;;;;;3.00;2.63;;;;;;;-141.59;100.00;61776.25;5032204;28;20199;-84
2022/03/14 04:55:27;;;;;;;3.93;2.60;;;;;;;-141.59;100.00;61776.25;5042988;28;20446;-80
2022/03/14 04:57:54;;;;;;;2.50;2.30;;;;;;;-141.59;100.00;61776.25;5050954;28;20208;-83
2022/03/14 05:00:22;;;;;;;2.90;2.40;;;;;;;-141.59;100.00;61776.25;5030492;28;20217;-83
2022/03/14 05:02:49;;;;;;;2.80;2.30;;;;;;;-141.59;100.00;61776.25;5025851;28;20232;-84
2022/03/14 05:05:16;;;;;;;3.23;2.67;;;;;;;-141.59;100.00;61776.25;5046448;28;20226;-83
2022/03/14 05:07:44;;;;;;;3.13;2.27;;;;;;;-141.59;100.00;61776.25;5025804;28;20215;-84
2022/03/14 05:10:12;;;;;;;3.33;2.57;;;;;;;-141.59;100.00;61776.25;5046026;28;20244;-83
2022/03/14 05:12:40;;;;;;;4.17;2.70;;;;;;;-141.59;100.00;61776.25;5025077;28;20272;-83
2022/03/14 05:15:08;;;;;;;4.10;2.80;;;;;;;-141.59;100.00;61776.25;5029149;28;20214;-84
2022/03/14 05:17:35;;;;;;;4.07;3.13;;;;;;;-141.59;100.00;61776.25;5054113;28;20236;-84
2022/03/14 05:20:04;;;;;;;4.20;2.90;;;;;;;-141.59;100.00;61776.25;5026815;28;20217;-83
2022/03/14 05:22:32;;;;;;;4.40;3.20;;;;;;;-141.59;100.00;61776.25;5023923;28;20266;-84
2022/03/14 05:24:59;;;;;;;8.33;3.90;;;;;;;-141.59;100.00;61776.25;5026102;28;20232;-83
2022/03/14 05:27:26;;;;;;;4.77;3.20;;;;;;;-141.59;100.00;61776.25;5041970;28;20533;-84
2022/03/14 05:29:54;;;;;;;5.47;3.17;;;;;;;-141.59;100.00;61776.25;5045213;28;20257;-83
2022/03/14 05:32:22;;;;;;;4.00;3.10;;;;;;;-141.59;100.00;61776.25;5025008;28;20201;-84
2022/03/14 05:34:49;;;;;;;4.73;3.53;;;;;;;-141.59;100.00;61776.25;5029732;28;20206;-83
2022/03/14 05:37:17;;;;;;;4.27;3.70;;;;;;;-141.59;100.00;61776.25;5027595;28;20198;-83
2022/03/14 05:39:44;;;;;;;3.87;3.03;;;;;;;-141.59;100.00;61776.25;5043125;28;20229;-83
2022/03/14 05:42:12;;;;;;;4.93;3.30;;;;;;;-141.59;100.00;61776.25;5026283;28;20225;-83
2022/03/14 05:44:39;;;;;;;5.67;3.63;;;;;;;-141.59;100.00;61776.25;5040724;28;20252;-83
2022/03/14 05:47:08;;;;;;;4.07;3.23;;;;;;;-141.59;100.00;61776.25;5046217;28;20209;-84
2022/03/14 05:49:35;;;;;;;5.53;3.07;;;;;;;-141.59;100.00;61776.25;5029410;28;20252;-82
2022/03/14 05:52:02;;;;;;;7.00;3.80;;;;;;;-141.59;100.00;61776.25;5041642;28;20271;-83
2022/03/14 05:54:29;;;;;;;5.03;3.23;;;;;;;-141.59;100.00;61776.25;5044479;28;20200;-83
2022/03/14 05:57:00;;;;;;;3.30;3.00;;;;;;;-141.59;100.00;61776.25;5025305;28;20199;-82
2022/03/14 05:59:27;;;;;;;4.67;3.43;;;;;;;-141.59;100.00;61776.25;5030529;28;20214;-83
2022/03/14 06:01:54;;;;;;;3.63;2.90;;;;;;;-141.59;100.00;61776.25;5027717;28;20214;-83
2022/03/14 06:04:23;;;;;;;5.03;3.47;;;;;;;-141.59;100.00;61776.25;5026002;28;20205;-83
2022/03/14 06:06:50;;;;;;;4.60;3.47;;;;;;;-141.59;100.00;61776.25;5048346;28;20313;-83
2022/03/14 06:09:17;;;;;;;3.70;3.00;;;;;;;-141.59;100.00;61776.25;5042764;28;20210;-82
2022/03/14 06:11:45;;;;;;;5.40;3.20;;;;;;;-141.59;100.00;61776.25;5028681;28;20198;-82
2022/03/14 06:14:12;;;;;;;4.23;3.20;;;;;;;-141.59;100.00;61776.25;5026193;28;20306;-83
2022/03/14 06:16:39;;;;;;;3.87;2.70;;;;;;;-141.59;100.00;61776.25;5019716;28;20210;-82
2022/03/14 06:19:06;;;;;;;4.00;3.00;;;;;;;-141.59;100.00;61776.25;5043981;28;20284;-81
2022/03/14 06:21:36;;;;;;;3.73;2.83;;;;;;;-141.59;100.00;61776.25;5043034;28;20266;-82
2022/03/14 06:24:04;;;;;;;3.07;2.77;;;;;;;-141.59;100.00;61776.25;5030984;28;20234;-82
2022/03/14 06:26:34;;;;;;;3.00;2.63;;;;;;;-141.59;100.00;61776.25;5029032;28;20226;-83
2022/03/14 06:29:01;;;;;;;3.63;2.70;;;;;;;-141.59;100.00;61776.25;5027180;28;20241;-82
2022/03/14 06:31:31;;;;;;;4.83;2.63;;;;;;;-141.59;100.00;61776.25;5046508;28;20222;-84
2022/03/14 06:33:59;;;;;;;3.77;2.83;;;;;;;-141.59;100.00;61776.25;5028536;28;20252;-82
2022/03/14 06:36:27;;;;;;;2.90;2.60;;;;;;;-141.59;100.00;61776.25;5045371;28;20208;-82
2022/03/14 06:38:59;;;;;;;3.87;2.63;;;;;;;-141.59;100.00;61776.25;5044441;28;20226;-83
2022/03/14 06:41:27;;;;;;;5.70;3.10;;;;;;;-141.59;100.00;61776.25;5045023;28;20205;-81
2022/03/14 06:43:56;;;;;;;3.90;2.70;;;;;;;-141.59;100.00;61776.25;5025209;28;20325;-83
2022/03/14 06:46:23;;;;;;;3.00;2.43;;;;;;;-141.59;100.00;61776.25;5029735;28;20213;-84
2022/03/14 06:48:51;;;;;;;3.90;3.37;;;;;;;-141.59;100.00;61776.25;5043929;28;20206;-82
2022/03/14 06:51:19;;;;;;;4.00;2.80;;;;;;;-141.59;100.00;61776.25;5020914;28;20230;-82
2022/03/14 06:53:46;;;;;;;4.10;3.30;;;;;;;-141.59;100.00;61776.25;5028169;28;20198;-81
2022/03/14 06:56:17;;;;;;;5.73;2.63;;;;;;;-141.59;100.00;61776.25;5041774;28;20635;-83
2022/03/14 06:58:45;;;;;;;3.80;3.00;;;;;;;-141.59;100.00;61776.25;5042940;28;20213;-84
2022/03/14 07:01:13;;;;;;;3.73;2.70;;;;;;;-141.59;100.00;61776.25;5029895;28;20256;-84
2022/03/14 07:03:40;;;;;;;4.70;3.20;;;;;;;-141.59;100.00;61776.25;5024957;28;20206;-83
2022/03/14 07:06:08;;;;;;;3.93;3.20;;;;;;;-141.59;100.00;61776.25;5028104;28;20257;-82
2022/03/14 07:08:35;;;;;;;2.90;2.40;;;;;;;-141.59;100.00;61776.25;5028459;28;20229;-81
2022/03/14 07:11:02;;;;;;;3.27;2.80;;;;;;;-141.59;100.00;61776.25;5028421;28;20198;-83
2022/03/14 07:13:30;;;;;;;4.00;2.80;;;;;;;-141.59;100.00;61776.25;5043195;28;20232;-83
2022/03/14 07:15:57;;;;;;;4.03;2.70;;;;;;;-141.59;100.00;61776.25;5031896;28;20198;-83
2022/03/14 07:18:24;;;;;;;4.40;2.97;;;;;;;-141.59;100.00;61776.25;5023750;28;20321;-80
2022/03/14 07:20:51;;;;;;;4.27;2.80;;;;;;;-141.59;100.00;61776.25;5029652;28;20206;-81
2022/03/14 07:23:18;;;;;;;5.13;4.43;;;;;;;-141.59;100.00;61776.25;5024250;28;20222;-83
2022/03/14 07:25:45;;;;;;;5.07;3.30;;;;;;;-141.59;100.00;61776.25;5033553;28;20218;-82
2022/03/14 07:28:12;;;;;;;2.87;2.40;;;;;;;-141.59;100.00;61776.25;5026756;28;20207;-83
2022/03/14 07:30:41;;;;;;;2.47;2.20;;;;;;;-141.59;100.00;61776.25;5040367;28;20231;-83
2022/03/14 07:33:08;;;;;;;5.27;3.60;;;;;;;-141.59;100.00;61776.25;5030965;28;20202;-84
2022/03/14 07:35:35;;;;;;;3.77;3.37;;;;;;;-141.59;100.00;61776.25;5037331;28;20202;-82
2022/03/14 07:38:03;;;;;;;7.10;4.30;;;;;;;-141.59;100.00;61776.25;5026910;28;20215;-83
2022/03/14 07:40:31;;;;;;;7.00;4.13;;;;;;;-141.59;100.00;61776.25;5032195;28;20209;-82
2022/03/14 07:42:59;;;;;;;8.37;5.40;;;;;;;-141.59;100.00;61776.25;5056698;28;20279;-83
2022/03/14 07:45:32;;;;;;;7.77;4.60;;;;;;;-141.59;100.00;61776.25;5020329;28;20245;-83
2022/03/14 07:48:00;;;;;;;6.37;4.37;;;;;;;-141.59;100.00;61776.25;5032341;28;20222;-83
2022/03/14 07:50:29;;;;;;;8.30;5.03;;;;;;;-141.59;100.00;61776.25;5040251;28;20293;-83
2022/03/14 07:52:57;;;;;;;10.17;4.97;;;;;;;-141.59;100.00;61776.25;5046061;28;20209;-82
2022/03/14 07:55:25;;;;;;;8.67;4.33;;;;;;;-141.59;100.00;61776.25;5044756;28;20237;-80
2022/03/14 07:57:52;;;;;;;6.50;4.67;;;;;;;-141.59;100.00;61776.25;5044896;28;20475;-82
2022/03/14 08:00:21;;;;;;;9.30;5.07;;;;;;;-141.59;100.00;61776.25;5034961;28;20194;-83
2022/03/14 08:02:49;;;;;;;7.97;4.60;;;;;;;-141.59;100.00;61776.25;5036987;28;20214;-82
2022/03/14 08:05:23;;;;;;;6.97;4.37;;;;;;;-141.59;100.00;61776.25;5045601;28;20194;-82
2022/03/14 08:07:52;;;;;;;5.53;4.13;;;;;;;-141.59;100.00;61776.25;5030004;28;20205;-82
2022/03/14 08:10:19;;;;;;;11.57;4.10;;;;;;;-141.59;100.00;61776.25;5023768;28;20205;-83
2022/03/14 08:12:49;;;;;;;5.90;3.90;;;;;;;-141.59;100.00;61776.25;5049187;28;20198;-84
2022/03/14 08:15:20;;;;;;;7.10;4.00;;;;;;;-141.59;100.00;61776.25;5028249;28;20202;-84
2022/03/14 08:17:48;;;;;;;6.53;4.10;;;;;;;-141.59;100.00;61776.25;5032615;28;20206;-84
2022/03/14 08:20:15;;;;;;;6.23;4.13;;;;;;;-141.59;100.00;61776.25;5022163;28;20593;-80
2022/03/14 08:22:44;;;;;;;8.80;3.73;;;;;;;-141.59;100.00;61776.25;5022820;28;20268;-80
2022/03/14 08:25:11;;;;;;;5.17;3.37;;;;;;;-141.59;100.00;61776.25;5027994;28;20205;-84
2022/03/14 08:27:39;;;;;;;5.73;4.00;;;;;;;-141.59;100.00;61776.25;5024668;28;20233;-81
2022/03/14 08:30:07;;;;;;;4.13;3.43;;;;;;;-141.59;100.00;61776.25;5029387;28;20214;-81
2022/03/14 08:32:36;;;;;;;5.97;3.03;;;;;;;-141.59;100.00;61776.25;5048840;28;20202;-83
2022/03/14 08:35:07;;;;;;;4.97;2.90;;;;;;;-141.59;100.00;61776.25;5046027;28;20203;-83
2022/03/14 08:37:36;;;;;;;4.00;3.03;;;;;;;-141.59;100.00;61776.25;5026325;28;20248;-83
2022/03/14 08:40:07;;;;;;;3.37;2.70;;;;;;;-141.59;100.00;61776.25;5040985;28;20197;-84
2022/03/14 08:42:38;;;;;;;3.20;2.30;;;;;;;-141.59;100.00;61776.25;5028530;28;20218;-82
2022/03/14 08:45:07;;;;;;;3.57;2.53;;;;;;;-141.59;100.00;61776.25;5040859;28;20230;-83
2022/03/14 08:47:34;;;;;;;5.80;3.20;;;;;;;-141.59;100.00;61776.25;5047016;28;20272;-82
2022/03/14 08:50:02;;;;;;;3.30;2.73;;;;;;;-141.59;100.00;61776.25;5045017;28;20205;-82
2022/03/14 08:52:29;;;;;;;3.23;2.60;;;;;;;-141.59;100.00;61776.25;5044928;28;20259;-79
2022/03/14 08:54:56;;;;;;;4.33;2.80;;;;;;;-141.59;100.00;61776.25;5038562;28;20199;-82
2022/03/14 08:57:25;;;;;;;3.60;2.70;;;;;;;-141.59;100.00;61776.25;5041091;28;20202;-82
2022/03/14 08:59:54;;;;;;;3.60;2.40;;;;;;;-141.59;100.00;61776.25;5033489;28;20215;-83
2022/03/14 09:02:21;;;;;;;3.33;2.93;;;;;;;-141.59;100.00;61776.25;5028770;28;20257;-83
2022/03/14 09:04:48;;;;;;;7.37;3.07;;;;;;;-141.59;100.00;61776.25;5035639;28;20213;-82
2022/03/14 09:07:25;;;;;;;4.57;2.77;;;;;;;-141.59;100.00;61776.25;5025690;28;20226;-83
2022/03/14 09:09:52;;;;;;;4.30;2.80;;;;;;;-141.59;100.00;61776.25;5044301;28;20210;-80
2022/03/14 09:12:20;;;;;;;5.73;2.87;;;;;;;-141.59;100.00;61776.25;5045196;28;20207;-83
2022/03/14 09:14:49;;;;;;;3.50;2.63;;;;;;;-141.59;100.00;61776.25;5037111;28;20210;-83
2022/03/14 09:17:17;;;;;;;3.40;2.87;;;;;;;-141.59;100.00;61776.25;5047606;28;20206;-83
2022/03/14 09:19:44;;;;;;;4.53;2.60;;;;;;;-141.59;100.00;61776.25;5049433;28;20422;-83
2022/03/14 09:22:11;;;;;;;3.13;2.60;;;;;;;-141.59;100.00;61776.25;5027486;28;20199;-82
2022/03/14 09:24:39;;;;;;;4.63;2.80;;;;;;;-141.59;100.00;61776.25;5037625;28;20229;-81
2022/03/14 09:27:07;;;;;;;3.67;2.60;;;;;;;-141.59;100.00;61776.25;5029753;28;20229;-82
2022/03/14 09:29:34;;;;;;;3.00;2.57;;;;;;;-141.59;100.00;61776.25;5037768;28;20206;-82
2022/03/14 09:32:03;;;;;;;3.67;2.60;;;;;;;-141.59;100.00;61776.25;5032666;28;20213;-84
2022/03/14 09:34:31;;;;;;;2.77;2.40;;;;;;;-141.59;100.00;61776.25;5027060;28;20205;-81
2022/03/14 09:36:59;;;;;;;2.90;2.60;;;;;;;-141.59;100.00;61776.25;5028455;28;20213;-82
2022/03/14 09:39:26;;;;;;;2.87;2.40;;;;;;;-141.59;100.00;61776.25;5050627;28;20289;-82
2022/03/14 09:41:54;;;;;;;6.93;2.87;;;;;;;-141.59;100.00;61776.25;5030278;28;20228;-82
2022/03/14 09:44:27;;;;;;;4.00;2.80;;;;;;;-141.59;100.00;61776.25;5043636;28;20256;-83
2022/03/14 09:46:58;;;;;;;3.10;2.53;;;;;;;-141.59;100.00;61776.25;5048737;28;20229;-83
2022/03/14 09:49:28;;;;;;;3.40;2.67;;;;;;;-141.59;100.00;61776.25;5027715;28;20332;-83
2022/03/14 09:51:56;;;;;;;5.07;2.50;;;;;;;-141.59;100.00;61776.25;5027122;28;20202;-84
2022/03/14 09:54:23;;;;;;;4.87;3.03;;;;;;;-141.59;100.00;61776.25;5030267;28;20214;-83
2022/03/14 09:56:50;;;;;;;8.97;3.10;;;;;;;-141.59;100.00;61776.25;5046903;28;20201;-83
2022/03/14 09:59:17;;;;;;;5.50;2.63;;;;;;;-141.59;100.00;61776.25;5030000;28;20198;-82
2022/03/14 10:01:44;;;;;;;3.40;2.70;;;;;;;-141.59;100.00;61776.25;5027573;28;20205;-84
2022/03/14 10:04:13;;;;;;;2.70;2.43;;;;;;;-141.59;100.00;61776.25;5021706;28;20202;-84
2022/03/14 10:06:41;;;;;;;3.40;2.73;;;;;;;-141.59;100.00;61776.25;5029942;28;20226;-84
2022/03/14 10:09:08;;;;;;;2.70;2.40;;;;;;;-141.59;100.00;61776.25;5026574;28;20217;-84
2022/03/14 10:11:35;;;;;;;3.97;2.80;;;;;;;-141.59;100.00;61776.25;5023263;28;20206;-84
2022/03/14 10:14:05;;;;;;;3.43;2.67;;;;;;;-141.59;100.00;61776.25;5040918;28;20230;-85
2022/03/14 10:16:35;;;;;;;4.77;2.50;;;;;;;-141.59;100.00;61776.25;5050602;28;20206;-85
2022/03/14 10:19:07;;;;;;;5.20;2.90;;;;;;;-141.59;100.00;61776.25;5041630;28;20264;-84
2022/03/14 10:21:37;;;;;;;3.73;2.70;;;;;;;-141.59;100.00;61776.25;5020968;28;20206;-85
2022/03/14 10:24:07;;;;;;;5.10;2.90;;;;;;;-141.59;100.00;61776.25;5033163;28;20232;-84
2022/03/14 10:26:35;;;;;;;3.37;2.70;;;;;;;-141.59;100.00;61776.25;5049796;28;20222;-83
2022/03/14 10:29:11;;;;;;;3.13;2.83;;;;;;;-141.59;100.00;61776.25;5042397;28;20213;-84
2022/03/14 10:31:41;;;;;;;3.47;2.90;;;;;;;-141.59;100.00;61776.25;5038418;28;20279;-83
2022/03/14 10:34:11;;;;;;;3.00;2.70;;;;;;;-141.59;100.00;61776.25;5046323;28;20208;-86
2022/03/14 10:36:45;;;;;;;3.97;2.77;;;;;;;-141.59;100.00;61776.25;5044799;28;20297;-83
2022/03/14 10:39:19;;;;;;;4.43;3.00;;;;;;;-141.59;100.00;61776.25;5041788;28;20221;-81
2022/03/14 10:41:49;;;;;;;3.80;3.00;;;;;;;-141.59;100.00;61776.25;5027521;28;20216;-81
2022/03/14 10:44:25;;;;;;;3.37;2.97;;;;;;;-141.59;100.00;61776.25;5016602;28;20237;-80
2022/03/14 10:46:54;;;;;;;4.07;3.23;;;;;;;-141.59;100.00;61776.25;5040493;28;20265;-81
2022/03/14 10:49:27;;;;;;;5.27;3.03;;;;;;;-141.59;100.00;61776.25;5037537;28;20190;-80
2022/03/14 10:51:56;;;;;;;3.20;2.90;;;;;;;-141.59;100.00;61776.25;5040877;28;20233;-81
2022/03/14 10:54:25;;;;;;;3.60;3.10;;;;;;;-141.59;100.00;61776.25;5025911;28;20206;-80
2022/03/14 10:57:09;;;;;;;5.63;3.00;;;;;;;-141.59;100.00;61776.25;5032963;28;20209;-82
2022/03/14 10:59:39;;;;;;;3.77;2.70;;;;;;;-141.59;100.00;61776.25;5050729;28;20306;-83
2022/03/14 11:02:10;;;;;;;3.27;2.93;;;;;;;-141.59;100.00;61776.25;5033069;28;20214;-83
2022/03/14 11:04:47;;;;;;;4.37;2.87;;;;;;;-141.59;100.00;61776.25;5043185;28;20210;-82
2022/03/14 11:07:16;;;;;;;4.23;3.07;;;;;;;-141.59;100.00;61776.25;5040653;28;20225;-83
2022/03/14 11:09:47;;;;;;;3.63;3.03;;;;;;;-141.59;100.00;61776.25;5027744;28;20199;-82
2022/03/14 11:12:16;;;;;;;4.20;2.87;;;;;;;-141.59;100.00;61776.25;5033978;28;20203;-84
2022/03/14 11:14:52;;;;;;;3.07;2.77;;;;;;;-141.59;100.00;61776.25;5051694;28;20206;-83